Time,TemperatureF,DewpointF,PressureIn,WindDirection,WindDirectionDegrees,WindSpeedMPH,WindSpeedGustMPH,Humidity,HourlyPrecipIn,Conditions,Clouds,dailyrainin,SoftwareType,DateUTC
2013-09-19 00:00:00,68.8,59.0,30.07,SW,232,0.0,8.0,71,0.00,CLR,SKC,0.00,WeatherDisplay:10.37,2013-09-19 04:00:00,
2013-09-19 00:10:00,68.5,61.0,30.07,SSW,192,1.0,7.0,77,0.00,CLR,SKC,0.00,WeatherDisplay:10.37,2013-09-19 04:10:00,
2013-09-19 00:20:00,68.3,60.8,30.07,SSW,207,0.0,6.0,77,0.00,CLR,SKC,0.00,WeatherDisplay:10.37,2013-09-19 04:20:00,
2013-09-19 00:30:00,67.9,61.1,30.07,SW,219,3.0,9.0,79,0.00,CLR,SKC,0.00,WeatherDisplay:10.37,2013-09-19 04:30:00,
2013-09-19 00:40:00,67.7,60.6,30.07,WSW,243,1.0,8.0,78,0.00,CLR,SKC,0.00,WeatherDisplay:10.37,2013-09-19 04:40:00,
2013-09-19 00:50:00,67.9,62.2,30.06,WSW,238,0.0,3.0,82,0.00,CLR,SKC,0.00,WeatherDisplay:10.37,2013-09-19 04:50:00,
2013-09-19 01:00:00,67.8,62.1,30.07,SW,227,0.0,5.0,82,0.00,CLR,SKC,0.00,WeatherDisplay:10.37,2013-09-19 05:00:00,
2013-09-19 01:10:00,67.4,62.4,30.07,SW,220,0.0,8.0,84,0.00,CLR,SKC,0.00,WeatherDisplay:10.37,2013-09-19 05:10:00,
2013-09-19 01:20:00,67.2,61.9,30.07,SW,219,2.0,7.0,83,0.00,CLR,SKC,0.00,WeatherDisplay:10.37,2013-09-19 05:20:00,
2013-09-19 01:30:00,67.9,63.2,30.07,SW,221,0.0,5.0,85,0.00,CLR,SKC,0.00,WeatherDisplay:10.37,2013-09-19 05:30:00,
2013-09-19 01:40:00,67.4,63.7,30.07,SW,216,0.0,6.0,88,0.00,CLR,SKC,0.00,WeatherDisplay:10.37,2013-09-19 05:40:00,
2013-09-19 01:50:00,65.6,60.6,30.07,SW,232,1.0,7.0,84,0.00,CLR,SKC,0.00,WeatherDisplay:10.37,2013-09-19 05:50:00,
2013-09-19 02:00:00,66.7,62.3,30.06,SW,218,3.0,9.0,86,0.00,CLR,SKC,0.00,WeatherDisplay:10.37,2013-09-19 06:00:00,
2013-09-19 02:10:00,67.8,64.1,30.06,SSW,208,1.0,11.0,88,0.00,CLR,SKC,0.00,WeatherDisplay:10.37,2013-09-19 06:10:00,
2013-09-19 02:20:00,66.2,62.2,30.07,SW,220,2.0,9.0,87,0.00,CLR,SKC,0.00,WeatherDisplay:10.37,2013-09-19 06:20:00,
2013-09-19 02:30:00,67.3,64.0,30.07,WSW,249,0.0,7.0,89,0.00,CLR,SKC,0.00,WeatherDisplay:10.37,2013-09-19 06:30:00,
2013-09-19 02:40:00,66.8,62.8,30.07,SW,236,1.0,8.0,87,0.00,CLR,SKC,0.00,WeatherDisplay:10.37,2013-09-19 06:40:00,
2013-09-19 02:50:00,65.8,62.8,30.07,WSW,240,1.0,7.0,90,0.00,CLR,SKC,0.00,WeatherDisplay:10.37,2013-09-19 06:50:00,
2013-09-19 03:00:00,66.8,62.5,30.07,SSE,165,0.0,1.0,86,0.00,CLR,SKC,0.00,WeatherDisplay:10.37,2013-09-19 07:00:00,
2013-09-19 03:10:00,67.0,63.6,30.07,South,170,1.0,8.0,89,0.00,CLR,SKC,0.00,WeatherDisplay:10.37,2013-09-19 07:10:00,
2013-09-19 03:20:00,66.6,62.3,30.06,SW,228,2.0,7.0,86,0.00,CLR,SKC,0.00,WeatherDisplay:10.37,2013-09-19 07:20:00,
2013-09-19 03:30:00,66.8,63.1,30.06,SSW,213,1.0,6.0,88,0.00,CLR,SKC,0.00,WeatherDisplay:10.37,2013-09-19 07:30:00,
2013-09-19 03:40:00,66.6,61.6,30.06,SW,224,0.0,8.0,84,0.00,CLR,SKC,0.00,WeatherDisplay:10.37,2013-09-19 07:40:00,
2013-09-19 03:50:00,65.9,61.2,30.06,SW,221,0.0,0.0,85,0.00,CLR,SKC,0.00,WeatherDisplay:10.37,2013-09-19 07:50:00,
2013-09-19 04:00:00,66.8,62.2,30.06,SW,221,0.0,0.0,85,0.00,CLR,SKC,0.00,WeatherDisplay:10.37,2013-09-19 08:00:00,
2013-09-19 04:09:00,66.5,62.2,30.06,South,179,0.0,5.0,86,0.00,CLR,SKC,0.00,WeatherDisplay:10.37,2013-09-19 08:09:00,
2013-09-19 04:19:00,66.8,62.5,30.06,South,179,0.0,0.0,86,0.00,CLR,SKC,0.00,WeatherDisplay:10.37,2013-09-19 08:19:00,
2013-09-19 04:29:00,66.6,63.9,30.05,WSW,237,0.0,6.0,91,0.00,CLR,SKC,0.00,WeatherDisplay:10.37,2013-09-19 08:29:00,
2013-09-19 04:39:00,66.3,63.6,30.05,SW,220,0.0,7.0,91,0.00,CLR,SKC,0.00,WeatherDisplay:10.37,2013-09-19 08:39:00,
2013-09-19 04:49:00,66.7,64.0,30.05,SW,233,0.0,8.0,91,0.00,CLR,SKC,0.00,WeatherDisplay:10.37,2013-09-19 08:49:00,
2013-09-19 04:59:00,66.6,63.9,30.06,SSE,167,0.0,5.0,91,0.00,CLR,SKC,0.00,WeatherDisplay:10.37,2013-09-19 08:59:00,
2013-09-19 05:09:00,66.7,64.3,30.06,South,176,0.0,6.0,92,0.00,CLR,SKC,0.00,WeatherDisplay:10.37,2013-09-19 09:09:00,
2013-09-19 05:19:00,67.2,63.8,30.06,SSW,195,2.0,8.0,89,0.00,CLR,SKC,0.00,WeatherDisplay:10.37,2013-09-19 09:19:00,
2013-09-19 05:29:00,66.9,63.2,30.05,SW,215,0.0,6.0,88,0.00,CLR,SKC,0.00,WeatherDisplay:10.37,2013-09-19 09:29:00,
2013-09-19 05:39:00,66.8,62.8,30.05,South,179,2.0,7.0,87,0.00,CLR,SKC,0.00,WeatherDisplay:10.37,2013-09-19 09:39:00,
2013-09-19 05:49:00,67.7,64.9,30.05,WSW,246,0.0,7.0,91,0.00,CLR,SKC,0.00,WeatherDisplay:10.37,2013-09-19 09:49:00,
2013-09-19 05:59:00,67.3,64.5,30.04,SW,230,1.0,7.0,91,0.00,CLR,SKC,0.00,WeatherDisplay:10.37,2013-09-19 09:59:00,
2013-09-19 06:09:00,67.6,64.3,30.04,South,189,1.0,8.0,89,0.00,CLR,SKC,0.00,WeatherDisplay:10.37,2013-09-19 10:09:00,
2013-09-19 06:19:00,67.4,64.7,30.05,SW,218,0.0,10.0,91,0.00,CLR,SKC,0.00,WeatherDisplay:10.37,2013-09-19 10:19:00,
2013-09-19 06:29:00,67.1,64.3,30.05,South,190,0.0,7.0,91,0.00,CLR,SKC,0.00,WeatherDisplay:10.37,2013-09-19 10:29:00,
2013-09-19 06:40:00,67.5,64.8,30.06,SSW,207,0.0,8.0,91,0.00,CLR,SKC,0.00,WeatherDisplay:10.37,2013-09-19 10:40:00,
2013-09-19 06:50:00,67.2,63.2,30.06,WSW,237,0.0,7.0,87,0.00,CLR,SKC,0.00,WeatherDisplay:10.37,2013-09-19 10:50:00,
2013-09-19 07:00:00,67.1,63.4,30.06,SW,234,1.0,10.0,88,0.00,CLR,SKC,0.00,WeatherDisplay:10.37,2013-09-19 11:00:00,
2013-09-19 07:10:00,68.1,65.7,30.06,SW,226,0.0,7.0,92,0.00,CLR,SKC,0.00,WeatherDisplay:10.37,2013-09-19 11:10:00,
2013-09-19 07:20:00,67.3,64.9,30.06,SSW,200,1.0,10.0,92,0.00,CLR,SKC,0.00,WeatherDisplay:10.37,2013-09-19 11:20:00,
2013-09-19 07:30:00,67.5,64.5,30.06,SSW,203,0.0,2.0,90,0.00,CLR,SKC,0.00,WeatherDisplay:10.37,2013-09-19 11:30:00,
2013-09-19 07:40:00,67.0,64.6,30.06,SSW,203,0.0,0.0,92,0.01,RA,SKC,0.01,WeatherDisplay:10.37,2013-09-19 11:40:00,
2013-09-19 07:50:00,68.3,65.9,30.07,WSW,255,2.0,8.0,92,0.01,RA,SKC,0.02,WeatherDisplay:10.37,2013-09-19 11:50:00,
2013-09-19 08:00:00,67.3,64.9,30.07,WSW,254,0.0,0.0,92,0.00,CLR,SKC,0.02,WeatherDisplay:10.37,2013-09-19 12:00:00,
2013-09-19 08:10:00,67.4,65.0,30.07,SSW,211,0.0,8.0,92,0.00,CLR,SKC,0.02,WeatherDisplay:10.37,2013-09-19 12:10:00,
2013-09-19 08:20:00,68.0,65.3,30.07,SSW,212,1.0,6.0,91,0.00,CLR,SKC,0.02,WeatherDisplay:10.37,2013-09-19 12:20:00,
2013-09-19 08:30:00,68.1,65.7,30.06,SSW,211,0.0,9.0,92,0.00,CLR,SKC,0.02,WeatherDisplay:10.37,2013-09-19 12:30:00,
2013-09-19 08:40:00,67.7,65.6,30.06,SSW,203,0.0,8.0,93,0.00,CLR,SKC,0.02,WeatherDisplay:10.37,2013-09-19 12:40:00,
2013-09-19 08:50:00,67.1,64.7,30.06,SSW,209,0.0,6.0,92,0.01,RA,SKC,0.03,WeatherDisplay:10.37,2013-09-19 12:50:00,
2013-09-19 09:00:00,68.1,65.7,30.06,SE,135,0.0,0.0,92,0.00,CLR,SKC,0.03,WeatherDisplay:10.37,2013-09-19 13:00:00,
2013-09-19 09:10:00,68.4,65.7,30.06,SE,135,0.0,0.0,91,0.00,CLR,SKC,0.03,WeatherDisplay:10.37,2013-09-19 13:10:00,
2013-09-19 09:20:00,68.0,65.6,30.06,SW,224,5.0,9.0,92,0.00,CLR,SKC,0.03,WeatherDisplay:10.37,2013-09-19 13:20:00,
2013-09-19 09:30:00,67.8,65.4,30.06,SW,231,0.0,7.0,92,0.00,CLR,SKC,0.03,WeatherDisplay:10.37,2013-09-19 13:30:00,
2013-09-19 09:40:00,68.4,66.0,30.06,SSW,208,0.0,6.0,92,0.00,CLR,SKC,0.03,WeatherDisplay:10.37,2013-09-19 13:40:00,
2013-09-19 09:50:00,68.5,65.8,30.07,SW,228,0.0,13.0,91,0.00,CLR,SKC,0.03,WeatherDisplay:10.37,2013-09-19 13:50:00,
2013-09-19 10:00:00,68.4,65.6,30.07,SW,222,1.0,8.0,91,0.00,CLR,SKC,0.03,WeatherDisplay:10.37,2013-09-19 14:00:00,
2013-09-19 10:10:00,68.7,66.0,30.07,SW,224,2.0,11.0,91,0.00,CLR,SKC,0.03,WeatherDisplay:10.37,2013-09-19 14:10:00,
2013-09-19 10:20:00,68.6,65.9,30.07,WSW,244,1.0,10.0,91,0.00,CLR,SKC,0.03,WeatherDisplay:10.37,2013-09-19 14:20:00,
2013-09-19 10:30:00,67.7,64.7,30.07,SW,231,5.0,14.0,90,0.00,CLR,SKC,0.03,WeatherDisplay:10.37,2013-09-19 14:30:00,
2013-09-19 10:40:00,69.5,66.8,30.07,WSW,250,0.0,8.0,91,0.00,CLR,SKC,0.03,WeatherDisplay:10.37,2013-09-19 14:40:00,
2013-09-19 10:50:00,71.1,67.4,30.06,West,262,0.0,0.0,88,0.00,CLR,SKC,0.03,WeatherDisplay:10.37,2013-09-19 14:50:00,
2013-09-19 11:00:00,70.6,66.2,30.06,West,262,0.0,0.0,86,0.00,CLR,SKC,0.03,WeatherDisplay:10.37,2013-09-19 15:00:00,
2013-09-19 11:10:00,71.6,65.8,30.06,WSW,242,6.0,9.0,82,0.00,CLR,SKC,0.03,WeatherDisplay:10.37,2013-09-19 15:10:00,
2013-09-19 11:20:00,72.5,66.0,30.06,WSW,256,2.0,9.0,80,0.00,CLR,SKC,0.03,WeatherDisplay:10.37,2013-09-19 15:20:00,
2013-09-19 11:30:00,72.6,65.4,30.07,SW,234,7.0,10.0,78,0.00,CLR,SKC,0.03,WeatherDisplay:10.37,2013-09-19 15:30:00,
2013-09-19 11:40:00,72.7,65.8,30.07,WSW,254,5.0,8.0,79,0.00,CLR,SKC,0.03,WeatherDisplay:10.37,2013-09-19 15:40:00,
2013-09-19 11:50:00,72.0,65.4,30.07,West,261,6.0,9.0,80,0.00,CLR,SKC,0.03,WeatherDisplay:10.37,2013-09-19 15:50:00,
2013-09-19 12:00:00,72.8,66.3,30.07,West,264,5.0,12.0,80,0.00,CLR,SKC,0.03,WeatherDisplay:10.37,2013-09-19 16:00:00,
2013-09-19 12:20:00,74.4,66.4,30.06,South,191,3.0,12.0,76,0.00,CLR,SKC,0.03,WeatherDisplay:10.37,2013-09-19 16:20:00,
2013-09-19 12:30:00,73.8,65.7,30.06,WSW,238,6.0,12.0,76,0.00,CLR,SKC,0.03,WeatherDisplay:10.37,2013-09-19 16:30:00,
2013-09-19 12:40:00,74.2,66.9,30.06,SW,228,2.0,13.0,78,0.00,CLR,SKC,0.03,WeatherDisplay:10.37,2013-09-19 16:40:00,
2013-09-19 12:50:00,73.9,66.3,30.06,SSW,201,3.0,11.0,77,0.00,CLR,SKC,0.03,WeatherDisplay:10.37,2013-09-19 16:50:00,
2013-09-19 13:00:00,74.1,66.0,30.06,SW,230,3.0,10.0,76,0.00,CLR,SKC,0.03,WeatherDisplay:10.37,2013-09-19 17:00:00,
2013-09-19 13:10:00,74.5,66.9,30.05,South,189,5.0,11.0,77,0.00,CLR,SKC,0.03,WeatherDisplay:10.37,2013-09-19 17:10:00,
2013-09-19 13:20:00,74.1,66.0,30.05,SW,234,6.0,9.0,76,0.00,CLR,SKC,0.03,WeatherDisplay:10.37,2013-09-19 17:20:00,
2013-09-19 13:30:00,75.1,66.2,30.04,WSW,251,1.0,8.0,74,0.00,CLR,SKC,0.03,WeatherDisplay:10.37,2013-09-19 17:30:00,
2013-09-19 13:40:00,75.3,66.8,30.04,SW,236,0.0,9.0,75,0.00,CLR,SKC,0.03,WeatherDisplay:10.37,2013-09-19 17:40:00,
2013-09-19 13:50:00,77.1,67.4,30.04,SSE,164,2.0,8.0,72,0.00,CLR,SKC,0.03,WeatherDisplay:10.37,2013-09-19 17:50:00,
2013-09-19 14:00:00,76.5,67.2,30.04,West,259,0.0,9.0,73,0.00,CLR,SKC,0.03,WeatherDisplay:10.37,2013-09-19 18:00:00,
2013-09-19 14:10:00,77.6,67.4,30.04,WSW,258,2.0,9.0,71,0.00,CLR,SKC,0.03,WeatherDisplay:10.37,2013-09-19 18:10:00,
2013-09-19 14:20:00,78.3,66.0,30.04,SW,223,0.0,7.0,66,0.00,CLR,SKC,0.03,WeatherDisplay:10.37,2013-09-19 18:20:00,
2013-09-19 14:30:00,79.2,68.2,30.04,North,350,0.0,0.0,69,0.00,CLR,SKC,0.03,WeatherDisplay:10.37,2013-09-19 18:30:00,
2013-09-19 14:40:00,78.1,67.5,30.03,North,350,0.0,0.0,70,0.00,CLR,SKC,0.03,WeatherDisplay:10.37,2013-09-19 18:40:00,
2013-09-19 14:50:00,77.6,65.3,30.03,West,262,2.0,9.0,66,0.00,CLR,SKC,0.03,WeatherDisplay:10.37,2013-09-19 18:50:00,
2013-09-19 15:00:00,77.7,65.4,30.03,WSW,255,5.0,8.0,66,0.00,CLR,SKC,0.03,WeatherDisplay:10.37,2013-09-19 19:00:00,
2013-09-19 15:09:00,78.5,66.6,30.02,SSW,205,0.0,11.0,67,0.00,CLR,SKC,0.03,WeatherDisplay:10.37,2013-09-19 19:09:00,
2013-09-19 15:20:00,77.4,66.0,30.02,SSW,212,1.0,8.0,68,0.00,CLR,SKC,0.03,WeatherDisplay:10.37,2013-09-19 19:20:00,
2013-09-19 15:30:00,78.3,66.9,30.02,West,267,1.0,8.0,68,0.00,CLR,SKC,0.03,WeatherDisplay:10.37,2013-09-19 19:30:00,
2013-09-19 15:39:00,77.0,66.5,30.02,WNW,284,1.0,6.0,70,0.00,CLR,SKC,0.03,WeatherDisplay:10.37,2013-09-19 19:39:00,
2013-09-19 15:49:00,77.2,65.8,30.03,West,267,6.0,9.0,68,0.00,CLR,SKC,0.03,WeatherDisplay:10.37,2013-09-19 19:49:00,
2013-09-19 15:59:00,78.3,68.2,30.02,WNW,288,0.0,8.0,71,0.00,CLR,SKC,0.03,WeatherDisplay:10.37,2013-09-19 19:59:00,
2013-09-19 16:09:00,78.0,67.4,30.02,West,263,0.0,7.0,70,0.00,CLR,SKC,0.03,WeatherDisplay:10.37,2013-09-19 20:09:00,
2013-09-19 16:19:00,79.8,68.3,30.02,WNW,290,0.0,7.0,68,0.00,CLR,SKC,0.03,WeatherDisplay:10.37,2013-09-19 20:19:00,
2013-09-19 16:29:00,79.0,67.1,30.02,NNW,343,1.0,6.0,67,0.00,CLR,SKC,0.03,WeatherDisplay:10.37,2013-09-19 20:29:00,
2013-09-19 16:39:00,78.4,67.0,30.02,NNW,328,0.0,8.0,68,0.00,CLR,SKC,0.03,WeatherDisplay:10.37,2013-09-19 20:39:00,
2013-09-19 16:49:00,78.8,67.4,30.02,SW,216,0.0,0.0,68,0.00,CLR,SKC,0.03,WeatherDisplay:10.37,2013-09-19 20:49:00,
2013-09-19 16:59:00,78.0,66.6,30.02,SW,216,0.0,0.0,68,0.00,CLR,SKC,0.03,WeatherDisplay:10.37,2013-09-19 20:59:00,
2013-09-19 17:09:00,77.9,67.3,30.03,WSW,258,0.0,8.0,70,0.00,CLR,SKC,0.03,WeatherDisplay:10.37,2013-09-19 21:09:00,
2013-09-19 17:19:00,77.4,69.2,30.03,NW,305,6.0,12.0,76,0.02,RA,SKC,0.05,WeatherDisplay:10.37,2013-09-19 21:19:00,
2013-09-19 17:29:00,73.4,68.6,30.03,NW,317,2.0,10.0,85,0.03,RA,SKC,0.08,WeatherDisplay:10.37,2013-09-19 21:29:00,
2013-09-19 17:39:00,71.6,68.2,30.02,NW,310,0.0,7.0,89,0.02,RA,SKC,0.10,WeatherDisplay:10.37,2013-09-19 21:39:00,
2013-09-19 17:49:00,71.5,67.4,30.01,WNW,303,0.0,0.0,87,0.01,RA,SKC,0.11,WeatherDisplay:10.37,2013-09-19 21:49:00,
2013-09-19 17:59:00,71.6,67.6,29.99,WNW,303,0.0,0.0,87,0.01,RA,SKC,0.12,WeatherDisplay:10.37,2013-09-19 21:59:00,
2013-09-19 18:09:00,71.4,67.7,29.99,WNW,303,0.0,0.0,88,0.01,RA,SKC,0.13,WeatherDisplay:10.37,2013-09-19 22:09:00,
2013-09-19 18:19:00,71.5,67.8,29.99,WNW,303,0.0,0.0,88,0.00,CLR,SKC,0.13,WeatherDisplay:10.37,2013-09-19 22:19:00,
2013-09-19 18:29:00,72.2,69.1,29.99,WNW,303,0.0,0.0,90,0.00,CLR,SKC,0.13,WeatherDisplay:10.37,2013-09-19 22:29:00,
2013-09-19 18:40:00,72.0,69.2,29.99,WNW,303,0.0,0.0,91,0.00,CLR,SKC,0.13,WeatherDisplay:10.37,2013-09-19 22:40:00,
2013-09-19 18:50:00,71.7,68.6,29.99,WNW,303,0.0,3.0,90,0.00,CLR,SKC,0.13,WeatherDisplay:10.37,2013-09-19 22:50:00,
2013-09-19 19:00:00,72.0,68.9,29.99,SSW,193,0.0,7.0,90,0.00,CLR,SKC,0.13,WeatherDisplay:10.37,2013-09-19 23:00:00,
2013-09-19 19:10:00,71.7,68.6,29.98,SSW,192,0.0,8.0,90,0.00,CLR,SKC,0.13,WeatherDisplay:10.37,2013-09-19 23:10:00,
2013-09-19 19:20:00,71.6,68.8,29.98,SW,231,0.0,7.0,91,0.00,CLR,SKC,0.13,WeatherDisplay:10.37,2013-09-19 23:20:00,
2013-09-19 19:30:00,71.2,68.4,29.97,SW,224,1.0,8.0,91,0.00,CLR,SKC,0.13,WeatherDisplay:10.37,2013-09-19 23:30:00,
2013-09-19 19:40:00,71.1,68.4,29.97,SW,232,1.0,6.0,91,0.00,CLR,SKC,0.13,WeatherDisplay:10.37,2013-09-19 23:40:00,
2013-09-19 19:50:00,71.0,68.2,29.97,SW,236,0.0,7.0,91,0.00,CLR,SKC,0.13,WeatherDisplay:10.37,2013-09-19 23:50:00,
2013-09-19 20:00:00,70.4,67.6,29.97,WSW,258,0.0,0.0,91,0.00,CLR,SKC,0.13,WeatherDisplay:10.37,2013-09-20 00:00:00,
2013-09-19 20:10:00,69.5,66.8,29.97,WSW,258,0.0,0.0,91,0.00,CLR,SKC,0.13,WeatherDisplay:10.37,2013-09-20 00:10:00,
2013-09-19 20:20:00,69.9,67.1,29.97,WSW,258,0.0,0.0,91,0.00,CLR,SKC,0.13,WeatherDisplay:10.37,2013-09-20 00:20:00,
2013-09-19 20:30:00,70.9,68.5,29.97,WSW,258,0.0,3.0,92,0.00,CLR,SKC,0.13,WeatherDisplay:10.37,2013-09-20 00:30:00,
2013-09-19 20:40:00,70.5,67.7,29.97,SW,215,0.0,7.0,91,0.00,CLR,SKC,0.13,WeatherDisplay:10.37,2013-09-20 00:40:00,
2013-09-19 20:50:00,69.9,67.5,29.97,SSE,164,1.0,8.0,92,0.00,CLR,SKC,0.13,WeatherDisplay:10.37,2013-09-20 00:50:00,
2013-09-19 21:00:00,69.5,67.1,29.97,SSE,152,0.0,7.0,92,0.00,CLR,SKC,0.13,WeatherDisplay:10.37,2013-09-20 01:00:00,
2013-09-19 21:10:00,70.0,67.6,29.97,SSE,151,0.0,0.0,92,0.00,CLR,SKC,0.13,WeatherDisplay:10.37,2013-09-20 01:10:00,
2013-09-19 21:20:00,68.7,66.3,29.98,SSE,151,0.0,0.0,92,0.00,CLR,SKC,0.13,WeatherDisplay:10.37,2013-09-20 01:20:00,
2013-09-19 21:30:00,69.0,66.6,29.98,SSE,159,0.0,7.0,92,0.00,CLR,SKC,0.13,WeatherDisplay:10.37,2013-09-20 01:30:00,
2013-09-19 21:40:00,68.9,66.5,29.98,South,171,1.0,6.0,92,0.00,CLR,SKC,0.13,WeatherDisplay:10.37,2013-09-20 01:40:00,
2013-09-19 21:50:00,69.1,66.7,29.99,SSE,155,0.0,0.0,92,0.00,CLR,SKC,0.13,WeatherDisplay:10.37,2013-09-20 01:50:00,
2013-09-19 22:00:00,69.3,66.9,29.99,South,175,0.0,3.0,92,0.00,CLR,SKC,0.13,WeatherDisplay:10.37,2013-09-20 02:00:00,
2013-09-19 22:10:00,69.4,66.9,29.99,SSW,213,0.0,0.0,92,0.00,CLR,SKC,0.13,WeatherDisplay:10.37,2013-09-20 02:10:00,
2013-09-19 22:20:00,69.2,66.8,30.00,SSW,213,0.0,0.0,92,0.00,CLR,SKC,0.13,WeatherDisplay:10.37,2013-09-20 02:20:00,
2013-09-19 22:30:00,69.4,67.0,30.00,SSW,213,0.0,0.0,92,0.00,CLR,SKC,0.13,WeatherDisplay:10.37,2013-09-20 02:30:00,
2013-09-19 22:40:00,70.1,67.3,30.00,SSW,213,0.0,0.0,91,0.00,CLR,SKC,0.13,WeatherDisplay:10.37,2013-09-20 02:40:00,
2013-09-19 22:50:00,70.9,67.8,30.00,SW,214,0.0,10.0,90,0.00,CLR,SKC,0.13,WeatherDisplay:10.37,2013-09-20 02:50:00,
2013-09-19 23:00:00,70.7,67.9,30.00,SSW,203,0.0,7.0,91,0.00,CLR,SKC,0.13,WeatherDisplay:10.37,2013-09-20 03:00:00,
2013-09-19 23:10:00,71.1,68.3,30.00,SW,216,1.0,7.0,91,0.00,CLR,SKC,0.13,WeatherDisplay:10.37,2013-09-20 03:10:00,
2013-09-19 23:20:00,70.2,67.5,30.00,South,191,1.0,7.0,91,0.00,CLR,SKC,0.13,WeatherDisplay:10.37,2013-09-20 03:20:00,
2013-09-19 23:30:00,70.0,66.9,29.99,SSW,204,0.0,8.0,90,0.00,CLR,SKC,0.13,WeatherDisplay:10.37,2013-09-20 03:30:00,
2013-09-19 23:40:00,70.2,67.5,29.99,SSW,203,2.0,8.0,91,0.00,CLR,SKC,0.13,WeatherDisplay:10.37,2013-09-20 03:40:00,
2013-09-19 23:50:00,70.2,67.1,29.99,WSW,250,2.0,8.0,90,0.00,CLR,SKC,0.13,WeatherDisplay:10.37,2013-09-20 03:50:00,